Flight Track Log - Related Links

Times and Time Zones

All times are in EDT time to prevent confusion due to time zone crossing. See the SWA471 flight status page for this flight to view local times or setup timezone preferences in your user account.

Time Position Orientation Groundspeed Altitude Reporting Facility
EDT Latitude Longitude Course Direction KTS MPH feet Rate Location/Type
Sun 09:30:27 PM 39.2833 -94.7333 228° Southwest 182 209 1,900  Level Kansas City TRACON
Sun 09:30:53 PM 39.2744 -94.7461 228° Southwest 152 175 2,800 1,933 Climbing Kansas City Center
Sun 09:31:57 PM 39.2306 -94.7900 218° Southwest 204 235 4,800 2,286 Climbing Kansas City Center
Sun 09:32:59 PM 39.1667 -94.8133 196° South 246 283 7,600 2,878 Climbing Kansas City Center
Sun 09:34:00 PM 39.0847 -94.8392 194° South 270 311 10,700 2,293 Climbing Kansas City Center
Sun 09:35:02 PM 39.0031 -94.8658 194° South 321 369 12,300 1,918 Climbing Kansas City Center
Sun 09:36:02 PM 38.9128 -94.8944 194° South 347 399 14,600 2,678 Climbing Kansas City Center
Sun 09:37:03 PM 38.8036 -94.9281 193° South 358 412 17,700 2,516 Climbing Kansas City Center
Sun 09:38:06 PM 38.7078 -94.9594 194° South 367 422 19,800 2,081 Climbing Kansas City Center
Sun 09:39:07 PM 38.5900 -94.9964 194° South 391 450 22,000 2,033 Climbing Kansas City Center
Sun 09:40:07 PM 38.4850 -95.0289 194° South 401 461 23,900 1,632 Climbing Kansas City Center
Sun 09:41:12 PM 38.3778 -95.0625 194° South 415 478 25,400 1,536 Climbing Kansas City Center
Sun 09:42:12 PM 38.2475 -95.1022 193° South 427 491 27,100 1,600 Climbing Kansas City Center
Sun 09:43:12 PM 38.1331 -95.1397 194° South 439 505 28,600 1,756 Climbing Kansas City Center
Sun 09:44:15 PM 38.0011 -95.1867 196° South 439 505 30,700 1,920 Climbing Kansas City Center
Sun 09:45:17 PM 37.8925 -95.2236 195° South 431 496 32,600 1,869 Climbing Kansas City Center
Sun 09:46:17 PM 37.7819 -95.2606 195° South 415 478 34,500 1,220 Climbing Kansas City Center
Sun 09:47:20 PM 37.6733 -95.2964 195° South 406 467 35,100 677 Climbing Kansas City Center
Sun 09:48:21 PM 37.5608 -95.3356 195° South 415 478 35,900 446 Climbing Kansas City Center
Sun 09:49:21 PM 37.4236 -95.3814 195° South 423 487 36,000 49 Climbing Kansas City Center
Sun 09:50:23 PM 37.3081 -95.4197 195° South 426 490 36,000  Level Kansas City Center
Sun 09:51:26 PM 37.1919 -95.4592 195° South 429 494 36,000  Level Kansas City Center
Sun 09:52:26 PM 37.0769 -95.4981 195° South 429 494 36,000  Level Kansas City Center
Sun 09:53:27 PM 36.9614 -95.5364 195° South 429 494 36,000  Level Kansas City Center
Sun 09:54:30 PM 36.8472 -95.5742 195° South 427 491 36,000  Level Kansas City Center
Sun 09:55:32 PM 36.7317 -95.6122 195° South 430 495 36,000  Level Kansas City Center
Sun 09:56:33 PM 36.6172 -95.6503 195° South 428 493 36,000  Level Kansas City Center
Sun 09:57:34 PM 36.4794 -95.6908 193° South 429 494 36,000  Level Kansas City Center
Sun 09:58:35 PM 36.3511 -95.6672 172° South 459 528 36,000 -242 Level Kansas City Center
Sun 09:59:38 PM 36.2244 -95.6386 170° South 462 532 35,500 -496 Descending Kansas City Center
Sun 10:00:36 PM 36.0967 -95.6103 170° South 464 534 35,000 -250 Descending Kansas City Center
Sun 10:01:38 PM 35.9772 -95.5817 169° South 462 532 35,000  Level Kansas City Center
Sun 10:02:42 PM 35.8522 -95.5539 170° South 459 528 35,000  Level Kansas City Center
Sun 10:03:43 PM 35.7297 -95.5261 170° South 452 520 35,000  Level Kansas City Center
Sun 10:04:45 PM 35.5822 -95.4928 170° South 449 517 35,000  Level Kansas City Center
Sun 10:05:18 PM 35.5081 -95.4781 171° South 455 524 35,000  Level Fort Worth Center
Sun 10:06:18 PM 35.3867 -95.4503 169° South 449 517 35,000  Level Fort Worth Center
Sun 10:07:18 PM 35.2653 -95.4228 170° South 449 517 35,000 -450 Level Fort Worth Center
Sun 10:08:18 PM 35.1397 -95.3953 170° South 449 517 34,100 -500 Descending Fort Worth Center
Sun 10:09:18 PM 35.0256 -95.4258 192° South 420 483 34,000 -50 Descending Fort Worth Center
Sun 10:10:18 PM 34.9200 -95.4814 203° Southwest 420 483 34,000  Level Fort Worth Center
Sun 10:11:18 PM 34.8144 -95.5394 204° Southwest 415 478 34,000 -50 Level Fort Worth Center
Sun 10:12:18 PM 34.7150 -95.5872 202° Southwest 426 490 33,900 -700 Descending Fort Worth Center
Sun 10:13:18 PM 34.6075 -95.6425 203° Southwest 431 496 32,600 -2,100 Descending Fort Worth Center
Sun 10:14:18 PM 34.5017 -95.6975 203° Southwest 431 496 29,700 -2,800 Descending Fort Worth Center
Sun 10:15:18 PM 34.3961 -95.7575 205° Southwest 426 490 27,000 -2,450 Descending Fort Worth Center
Sun 10:16:18 PM 34.2906 -95.8097 202° Southwest 421 484 24,800 -1,500 Descending Fort Worth Center
Sun 10:17:18 PM 34.1931 -95.8592 203° Southwest 408 470 24,000 -1,400 Descending Fort Worth Center
Sun 10:18:18 PM 34.0853 -95.9164 204° Southwest 395 455 22,000 -1,900 Descending Fort Worth Center
Sun 10:19:18 PM 34.0000 -95.9603 203° Southwest 385 443 20,200 -2,000 Descending Fort Worth Center
Sun 10:20:18 PM 33.9089 -96.0069 203° Southwest 370 426 18,000 -2,150 Descending Fort Worth Center
Sun 10:21:18 PM 33.8175 -96.0533 203° Southwest 364 419 15,900 -2,200 Descending Fort Worth Center
Sun 10:22:18 PM 33.7200 -96.1025 203° Southwest 351 404 13,600 -2,150 Descending Fort Worth Center
Sun 10:23:18 PM 33.6411 -96.1436 203° Southwest 351 404 11,600 -1,800 Descending Fort Worth Center
Sun 10:24:18 PM 33.5497 -96.1897 203° Southwest 337 388 10,000 -800 Descending Fort Worth Center
Sun 10:25:18 PM 33.4750 -96.2281 203° Southwest 332 382 10,000  Level Fort Worth Center
Sun 10:26:18 PM 33.3814 -96.2767 203° Southwest 332 382 10,000 -200 Level Fort Worth Center
Sun 10:27:18 PM 33.3128 -96.3097 202° Southwest 316 364 9,600 -550 Descending Fort Worth Center
Sun 10:28:18 PM 33.2444 -96.3653 214° Southwest 289 333 8,900 -800 Descending Fort Worth Center
Sun 10:29:18 PM 33.2033 -96.4303 233° Southwest 270 311 8,000 -1,000 Descending Fort Worth Center
Sun 10:30:18 PM 33.1578 -96.5078 235° Southwest 270 311 6,900 -1,050 Descending Fort Worth Center
Sun 10:31:18 PM 33.1144 -96.5825 235° Southwest 270 311 5,900 -950 Descending Fort Worth Center
Sun 10:32:18 PM 33.0900 -96.6572 249° West 270 311 5,000 -1,019 Descending Fort Worth Center
Sun 10:33:04 PM 33.0667 -96.7333 250° West 264 304 4,100 -566 Descending Dallas / Fort Worth TRACON
Sun 10:34:04 PM 33.0333 -96.8000 239° Southwest 231 266 4,000 -400 Descending Dallas / Fort Worth TRACON
Sun 10:35:04 PM 33.0167 -96.8667 253° West 206 237 3,300 -500 Descending Dallas / Fort Worth TRACON
Sun 10:36:04 PM 32.9833 -96.9167 232° Southwest 192 221 3,000 -300 Descending Dallas / Fort Worth TRACON
Sun 10:37:04 PM 32.9500 -96.9500 220° Southwest 184 212 2,700 -567 Descending Dallas / Fort Worth TRACON
Sun 10:38:11 PM 32.9000 -96.9167 151° Southeast 145 167 1,800 -722 Descending Dallas / Fort Worth TRACON
Sun 10:39:17 PM 32.8833 -96.8833 121° Southeast 126 145 1,100 -636 Descending Dallas / Fort Worth TRACON
Sun 10:41:00 PM 32.8471 -96.8518 176° South  Level Estimated
Sun 10:48:00 PM 32.8471 -96.8518 176° South  Level Estimated

Login

Don't have an account? Register now (free) for customized features, flight alerts, and more!